sensor_id;sensor_type;location;lat;lon;timestamp;pressure;altitude;pressure_sealevel;temperature;humidity
55990;BME280;41875;55.806;38.082;2023-03-19T00:01:03;100761.38;;;0.11;35.24
55990;BME280;41875;55.806;38.082;2023-03-19T00:03:32;100756.75;;;0.18;34.92
55990;BME280;41875;55.806;38.082;2023-03-19T00:06:00;100764.16;;;0.07;35.65
55990;BME280;41875;55.806;38.082;2023-03-19T00:08:29;100765.84;;;0.08;35.30
55990;BME280;41875;55.806;38.082;2023-03-19T00:10:58;100762.09;;;0.15;35.03
55990;BME280;41875;55.806;38.082;2023-03-19T00:13:28;100752.38;;;-0.04;35.53
55990;BME280;41875;55.806;38.082;2023-03-19T00:15:56;100747.00;;;0.01;35.01
55990;BME280;41875;55.806;38.082;2023-03-19T00:18:24;100740.94;;;0.01;36.05
55990;BME280;41875;55.806;38.082;2023-03-19T00:20:52;100744.56;;;-0.26;36.06
55990;BME280;41875;55.806;38.082;2023-03-19T00:23:21;100744.06;;;-0.36;36.43
55990;BME280;41875;55.806;38.082;2023-03-19T00:25:49;100744.66;;;-0.29;36.40
55990;BME280;41875;55.806;38.082;2023-03-19T00:28:18;100740.38;;;-0.30;36.27
55990;BME280;41875;55.806;38.082;2023-03-19T00:30:47;100738.53;;;-0.50;36.29
55990;BME280;41875;55.806;38.082;2023-03-19T00:33:16;100733.06;;;-0.66;36.93
55990;BME280;41875;55.806;38.082;2023-03-19T00:35:44;100738.19;;;-0.41;36.58
55990;BME280;41875;55.806;38.082;2023-03-19T00:38:13;100726.19;;;-0.45;36.41
55990;BME280;41875;55.806;38.082;2023-03-19T00:40:41;100724.97;;;-0.58;36.79
55990;BME280;41875;55.806;38.082;2023-03-19T00:43:10;100722.84;;;-0.71;36.52
55990;BME280;41875;55.806;38.082;2023-03-19T00:45:38;100718.91;;;-0.59;36.48
55990;BME280;41875;55.806;38.082;2023-03-19T00:48:08;100712.50;;;-0.50;36.06
55990;BME280;41875;55.806;38.082;2023-03-19T00:50:36;100713.28;;;-0.48;36.16
55990;BME280;41875;55.806;38.082;2023-03-19T00:53:05;100707.25;;;-0.72;36.67
55990;BME280;41875;55.806;38.082;2023-03-19T00:55:33;100707.78;;;-0.86;37.17
55990;BME280;41875;55.806;38.082;2023-03-19T00:58:01;100707.88;;;-0.89;37.36
55990;BME280;41875;55.806;38.082;2023-03-19T01:00:30;100705.91;;;-0.83;37.35
55990;BME280;41875;55.806;38.082;2023-03-19T01:02:58;100708.13;;;-0.72;36.87
55990;BME280;41875;55.806;38.082;2023-03-19T01:05:29;100702.81;;;-0.69;36.98
55990;BME280;41875;55.806;38.082;2023-03-19T01:07:58;100702.66;;;-0.66;36.93
55990;BME280;41875;55.806;38.082;2023-03-19T01:10:26;100697.72;;;-0.72;37.05
55990;BME280;41875;55.806;38.082;2023-03-19T01:12:55;100697.75;;;-0.73;37.41
55990;BME280;41875;55.806;38.082;2023-03-19T01:15:23;100697.59;;;-0.69;37.44
55990;BME280;41875;55.806;38.082;2023-03-19T01:17:51;100696.44;;;-0.62;37.21
55990;BME280;41875;55.806;38.082;2023-03-19T01:20:19;100690.69;;;-0.70;37.27
55990;BME280;41875;55.806;38.082;2023-03-19T01:22:51;100694.94;;;-0.91;38.05
55990;BME280;41875;55.806;38.082;2023-03-19T01:25:20;100693.47;;;-0.98;37.92
55990;BME280;41875;55.806;38.082;2023-03-19T01:28:08;100686.00;;;-1.08;37.83
55990;BME280;41875;55.806;38.082;2023-03-19T01:30:38;100691.84;;;-1.26;38.60
55990;BME280;41875;55.806;38.082;2023-03-19T01:33:12;100692.69;;;-1.26;38.29
55990;BME280;41875;55.806;38.082;2023-03-19T01:35:51;100688.97;;;-1.18;38.52
55990;BME280;41875;55.806;38.082;2023-03-19T01:38:25;100690.50;;;-1.13;38.60
55990;BME280;41875;55.806;38.082;2023-03-19T01:40:59;100681.63;;;-1.07;38.81
55990;BME280;41875;55.806;38.082;2023-03-19T01:43:27;100686.16;;;-1.12;39.27
55990;BME280;41875;55.806;38.082;2023-03-19T01:46:19;100697.03;;;-1.01;38.23
55990;BME280;41875;55.806;38.082;2023-03-19T01:49:10;100691.69;;;-0.98;38.51
55990;BME280;41875;55.806;38.082;2023-03-19T01:51:41;100685.03;;;-0.81;37.41
55990;BME280;41875;55.806;38.082;2023-03-19T01:54:36;100683.03;;;-0.74;37.68
55990;BME280;41875;55.806;38.082;2023-03-19T01:57:23;100683.66;;;-0.68;37.71
55990;BME280;41875;55.806;38.082;2023-03-19T02:00:11;100680.13;;;-0.65;37.40
55990;BME280;41875;55.806;38.082;2023-03-19T02:02:42;100681.56;;;-0.58;37.18
55990;BME280;41875;55.806;38.082;2023-03-19T02:05:18;100674.63;;;-0.57;37.58
55990;BME280;41875;55.806;38.082;2023-03-19T02:07:56;100669.44;;;-0.59;37.80
55990;BME280;41875;55.806;38.082;2023-03-19T02:10:27;100669.69;;;-0.65;37.90
55990;BME280;41875;55.806;38.082;2023-03-19T02:12:56;100665.50;;;-0.69;37.70
55990;BME280;41875;55.806;38.082;2023-03-19T02:15:24;100668.59;;;-0.82;38.36
55990;BME280;41875;55.806;38.082;2023-03-19T02:17:52;100668.28;;;-0.74;37.77
55990;BME280;41875;55.806;38.082;2023-03-19T02:20:22;100673.03;;;-1.09;38.96
55990;BME280;41875;55.806;38.082;2023-03-19T02:22:55;100670.41;;;-1.08;38.84
55990;BME280;41875;55.806;38.082;2023-03-19T02:25:32;100672.47;;;-0.94;38.09
55990;BME280;41875;55.806;38.082;2023-03-19T02:28:05;100666.47;;;-0.96;38.21
55990;BME280;41875;55.806;38.082;2023-03-19T02:30:36;100669.25;;;-1.00;38.44
55990;BME280;41875;55.806;38.082;2023-03-19T02:33:08;100659.03;;;-1.05;38.10
55990;BME280;41875;55.806;38.082;2023-03-19T02:35:37;100661.72;;;-1.08;38.30
55990;BME280;41875;55.806;38.082;2023-03-19T02:38:05;100662.53;;;-1.06;38.38
55990;BME280;41875;55.806;38.082;2023-03-19T02:40:35;100662.97;;;-0.95;38.60
55990;BME280;41875;55.806;38.082;2023-03-19T02:43:06;100663.75;;;-0.91;38.00
55990;BME280;41875;55.806;38.082;2023-03-19T02:45:34;100655.28;;;-0.98;38.59
55990;BME280;41875;55.806;38.082;2023-03-19T02:48:03;100650.34;;;-1.05;38.48
55990;BME280;41875;55.806;38.082;2023-03-19T02:50:31;100656.78;;;-1.14;38.62
55990;BME280;41875;55.806;38.082;2023-03-19T02:52:59;100657.72;;;-1.17;38.21
55990;BME280;41875;55.806;38.082;2023-03-19T02:55:27;100649.97;;;-1.18;38.41
55990;BME280;41875;55.806;38.082;2023-03-19T02:57:55;100654.56;;;-1.25;39.18
55990;BME280;41875;55.806;38.082;2023-03-19T03:00:25;100654.88;;;-1.34;38.74
55990;BME280;41875;55.806;38.082;2023-03-19T03:02:54;100650.56;;;-1.35;39.38
55990;BME280;41875;55.806;38.082;2023-03-19T03:05:23;100653.34;;;-1.40;39.07
55990;BME280;41875;55.806;38.082;2023-03-19T03:07:51;100646.31;;;-1.36;39.39
55990;BME280;41875;55.806;38.082;2023-03-19T03:10:19;100649.75;;;-1.61;40.18
55990;BME280;41875;55.806;38.082;2023-03-19T03:12:48;100648.94;;;-1.63;40.48
55990;BME280;41875;55.806;38.082;2023-03-19T03:15:17;100649.34;;;-1.74;40.35
55990;BME280;41875;55.806;38.082;2023-03-19T03:17:47;100638.44;;;-1.86;41.27
55990;BME280;41875;55.806;38.082;2023-03-19T03:20:15;100648.16;;;-1.91;40.80
55990;BME280;41875;55.806;38.082;2023-03-19T03:22:45;100641.53;;;-2.01;41.92
55990;BME280;41875;55.806;38.082;2023-03-19T03:25:13;100636.25;;;-2.25;41.99
55990;BME280;41875;55.806;38.082;2023-03-19T03:27:42;100639.81;;;-2.27;42.34
55990;BME280;41875;55.806;38.082;2023-03-19T03:30:11;100639.00;;;-2.30;42.87
55990;BME280;41875;55.806;38.082;2023-03-19T03:32:41;100644.34;;;-2.07;41.74
55990;BME280;41875;55.806;38.082;2023-03-19T03:35:11;100636.59;;;-2.09;41.70
55990;BME280;41875;55.806;38.082;2023-03-19T03:37:41;100635.38;;;-1.72;41.28
55990;BME280;41875;55.806;38.082;2023-03-19T03:40:10;100639.53;;;-1.42;41.12
55990;BME280;41875;55.806;38.082;2023-03-19T03:42:40;100636.53;;;-1.30;40.20
55990;BME280;41875;55.806;38.082;2023-03-19T03:45:09;100627.66;;;-1.24;40.21
55990;BME280;41875;55.806;38.082;2023-03-19T03:47:39;100632.00;;;-1.25;41.35
55990;BME280;41875;55.806;38.082;2023-03-19T03:50:08;100628.19;;;-1.14;39.87
55990;BME280;41875;55.806;38.082;2023-03-19T03:52:40;100633.50;;;-0.71;38.45
55990;BME280;41875;55.806;38.082;2023-03-19T03:55:09;100631.03;;;-0.98;39.27
55990;BME280;41875;55.806;38.082;2023-03-19T03:57:37;100626.34;;;-1.36;41.14
55990;BME280;41875;55.806;38.082;2023-03-19T04:00:06;100621.06;;;-1.34;40.83
55990;BME280;41875;55.806;38.082;2023-03-19T04:02:42;100623.13;;;-1.43;41.33
55990;BME280;41875;55.806;38.082;2023-03-19T04:05:13;100617.41;;;-1.05;40.47
55990;BME280;41875;55.806;38.082;2023-03-19T04:07:43;100612.47;;;-0.89;40.39
55990;BME280;41875;55.806;38.082;2023-03-19T04:10:13;100619.88;;;-0.78;39.99
55990;BME280;41875;55.806;38.082;2023-03-19T04:12:41;100624.59;;;-0.43;39.46
55990;BME280;41875;55.806;38.082;2023-03-19T04:15:11;100609.66;;;-0.60;39.09
55990;BME280;41875;55.806;38.082;2023-03-19T04:17:43;100620.56;;;-0.51;39.43
55990;BME280;41875;55.806;38.082;2023-03-19T04:20:11;100611.31;;;-0.15;38.52
55990;BME280;41875;55.806;38.082;2023-03-19T04:22:43;100613.84;;;-0.13;38.72
55990;BME280;41875;55.806;38.082;2023-03-19T04:25:12;100602.28;;;-0.06;38.81
55990;BME280;41875;55.806;38.082;2023-03-19T04:27:41;100603.25;;;0.12;37.97
55990;BME280;41875;55.806;38.082;2023-03-19T04:30:09;100595.81;;;0.23;37.58
55990;BME280;41875;55.806;38.082;2023-03-19T04:32:38;100591.81;;;0.16;37.77
55990;BME280;41875;55.806;38.082;2023-03-19T04:35:07;100596.09;;;-0.04;38.61
55990;BME280;41875;55.806;38.082;2023-03-19T04:37:35;100590.78;;;0.20;37.95
55990;BME280;41875;55.806;38.082;2023-03-19T04:40:05;100584.69;;;0.20;38.09
55990;BME280;41875;55.806;38.082;2023-03-19T04:42:36;100588.94;;;0.02;38.22
55990;BME280;41875;55.806;38.082;2023-03-19T04:45:11;100591.66;;;0.40;37.54
55990;BME280;41875;55.806;38.082;2023-03-19T04:47:40;100582.78;;;0.23;38.03
55990;BME280;41875;55.806;38.082;2023-03-19T04:50:09;100586.06;;;0.49;37.94
55990;BME280;41875;55.806;38.082;2023-03-19T04:52:40;100583.66;;;0.24;38.44
55990;BME280;41875;55.806;38.082;2023-03-19T04:55:11;100580.84;;;0.49;38.03
55990;BME280;41875;55.806;38.082;2023-03-19T04:58:02;100587.69;;;0.31;38.48
55990;BME280;41875;55.806;38.082;2023-03-19T05:00:33;100582.34;;;0.74;37.94
55990;BME280;41875;55.806;38.082;2023-03-19T05:03:02;100583.75;;;0.81;37.32
55990;BME280;41875;55.806;38.082;2023-03-19T05:05:31;100581.56;;;0.32;38.28
55990;BME280;41875;55.806;38.082;2023-03-19T05:08:04;100574.97;;;0.63;38.20
55990;BME280;41875;55.806;38.082;2023-03-19T05:10:35;100585.84;;;0.54;38.44
55990;BME280;41875;55.806;38.082;2023-03-19T05:13:04;100593.28;;;0.42;38.59
55990;BME280;41875;55.806;38.082;2023-03-19T05:15:37;100586.19;;;0.46;38.45
55990;BME280;41875;55.806;38.082;2023-03-19T05:18:05;100586.53;;;0.57;38.35
55990;BME280;41875;55.806;38.082;2023-03-19T05:20:41;100587.91;;;0.45;38.94
55990;BME280;41875;55.806;38.082;2023-03-19T05:23:17;100574.22;;;1.18;37.58
55990;BME280;41875;55.806;38.082;2023-03-19T05:25:56;100572.09;;;1.27;37.52
55990;BME280;41875;55.806;38.082;2023-03-19T05:28:44;100573.75;;;1.10;38.07
55990;BME280;41875;55.806;38.082;2023-03-19T05:31:20;100568.38;;;1.50;36.89
55990;BME280;41875;55.806;38.082;2023-03-19T05:33:51;100573.03;;;0.08;40.11
55990;BME280;41875;55.806;38.082;2023-03-19T05:36:20;100561.44;;;0.15;39.59
55990;BME280;41875;55.806;38.082;2023-03-19T05:38:59;100568.50;;;1.29;38.09
55990;BME280;41875;55.806;38.082;2023-03-19T05:41:35;100567.06;;;1.22;38.01
55990;BME280;41875;55.806;38.082;2023-03-19T05:44:06;100558.16;;;0.70;39.21
55990;BME280;41875;55.806;38.082;2023-03-19T05:47:08;100556.38;;;1.46;38.07
55990;BME280;41875;55.806;38.082;2023-03-19T05:49:39;100555.09;;;1.18;38.25
55990;BME280;41875;55.806;38.082;2023-03-19T05:52:08;100549.69;;;1.03;38.87
55990;BME280;41875;55.806;38.082;2023-03-19T05:54:37;100550.19;;;1.66;37.99
55990;BME280;41875;55.806;38.082;2023-03-19T05:57:16;100539.44;;;2.41;36.83
55990;BME280;41875;55.806;38.082;2023-03-19T05:59:51;100538.97;;;1.81;37.69
55990;BME280;41875;55.806;38.082;2023-03-19T06:02:40;100538.28;;;1.60;38.17
55990;BME280;41875;55.806;38.082;2023-03-19T06:05:32;100535.31;;;2.19;37.27
55990;BME280;41875;55.806;38.082;2023-03-19T06:08:13;100531.44;;;1.75;38.57
55990;BME280;41875;55.806;38.082;2023-03-19T06:11:04;100531.03;;;2.01;38.28
55990;BME280;41875;55.806;38.082;2023-03-19T06:13:36;100529.75;;;1.57;38.92
55990;BME280;41875;55.806;38.082;2023-03-19T06:16:11;100528.69;;;0.49;41.25
55990;BME280;41875;55.806;38.082;2023-03-19T06:18:46;100515.94;;;0.62;40.63
55990;BME280;41875;55.806;38.082;2023-03-19T06:21:15;100525.94;;;0.71;40.76
55990;BME280;41875;55.806;38.082;2023-03-19T06:23:43;100519.09;;;0.69;41.00
55990;BME280;41875;55.806;38.082;2023-03-19T06:26:15;100509.00;;;0.61;41.43
55990;BME280;41875;55.806;38.082;2023-03-19T06:28:51;100518.38;;;0.84;40.97
55990;BME280;41875;55.806;38.082;2023-03-19T06:31:20;100517.41;;;0.87;41.22
55990;BME280;41875;55.806;38.082;2023-03-19T06:33:51;100518.16;;;1.08;40.05
55990;BME280;41875;55.806;38.082;2023-03-19T06:36:23;100516.78;;;1.18;41.20
55990;BME280;41875;55.806;38.082;2023-03-19T06:38:54;100506.22;;;1.74;39.31
55990;BME280;41875;55.806;38.082;2023-03-19T06:41:22;100504.00;;;1.66;39.58
55990;BME280;41875;55.806;38.082;2023-03-19T06:43:57;100497.88;;;1.32;40.38
55990;BME280;41875;55.806;38.082;2023-03-19T06:46:26;100507.31;;;1.35;40.25
55990;BME280;41875;55.806;38.082;2023-03-19T06:48:54;100497.69;;;1.71;39.96
55990;BME280;41875;55.806;38.082;2023-03-19T06:51:22;100494.16;;;1.36;40.32
55990;BME280;41875;55.806;38.082;2023-03-19T06:53:53;100506.69;;;1.47;40.65
55990;BME280;41875;55.806;38.082;2023-03-19T06:56:36;100496.72;;;1.38;40.70
55990;BME280;41875;55.806;38.082;2023-03-19T06:59:08;100497.56;;;1.56;40.19
55990;BME280;41875;55.806;38.082;2023-03-19T07:01:40;100501.09;;;1.55;40.92
55990;BME280;41875;55.806;38.082;2023-03-19T07:04:23;100496.16;;;1.31;41.63
55990;BME280;41875;55.806;38.082;2023-03-19T07:06:51;100494.72;;;1.26;41.14
55990;BME280;41875;55.806;38.082;2023-03-19T07:09:19;100502.47;;;1.80;39.89
55990;BME280;41875;55.806;38.082;2023-03-19T07:11:49;100499.34;;;1.73;40.42
55990;BME280;41875;55.806;38.082;2023-03-19T07:14:18;100490.63;;;1.90;40.63
55990;BME280;41875;55.806;38.082;2023-03-19T07:16:46;100490.72;;;1.89;40.64
55990;BME280;41875;55.806;38.082;2023-03-19T07:19:15;100493.91;;;2.93;38.91
55990;BME280;41875;55.806;38.082;2023-03-19T07:21:43;100480.56;;;2.16;39.99
55990;BME280;41875;55.806;38.082;2023-03-19T07:24:12;100476.34;;;1.80;41.13
55990;BME280;41875;55.806;38.082;2023-03-19T07:26:43;100482.97;;;2.37;39.76
55990;BME280;41875;55.806;38.082;2023-03-19T07:29:12;100476.50;;;3.39;38.82
55990;BME280;41875;55.806;38.082;2023-03-19T07:31:42;100485.63;;;3.01;38.67
55990;BME280;41875;55.806;38.082;2023-03-19T07:34:10;100480.03;;;2.75;39.90
55990;BME280;41875;55.806;38.082;2023-03-19T07:36:38;100479.53;;;2.84;39.89
55990;BME280;41875;55.806;38.082;2023-03-19T07:39:06;100481.91;;;2.89;39.89
55990;BME280;41875;55.806;38.082;2023-03-19T07:41:34;100472.72;;;3.59;37.72
55990;BME280;41875;55.806;38.082;2023-03-19T07:44:03;100475.06;;;3.33;38.06
55990;BME280;41875;55.806;38.082;2023-03-19T07:46:31;100468.56;;;4.14;36.85
55990;BME280;41875;55.806;38.082;2023-03-19T07:49:01;100465.72;;;3.88;36.44
55990;BME280;41875;55.806;38.082;2023-03-19T07:51:30;100464.19;;;3.55;37.26
55990;BME280;41875;55.806;38.082;2023-03-19T07:53:58;100461.31;;;3.29;37.94
55990;BME280;41875;55.806;38.082;2023-03-19T07:56:27;100467.91;;;2.42;39.21
55990;BME280;41875;55.806;38.082;2023-03-19T07:58:55;100462.88;;;2.21;40.09
55990;BME280;41875;55.806;38.082;2023-03-19T08:01:23;100466.53;;;2.83;39.48
55990;BME280;41875;55.806;38.082;2023-03-19T08:03:51;100462.75;;;3.94;36.99
55990;BME280;41875;55.806;38.082;2023-03-19T08:06:21;100461.63;;;2.93;39.17
55990;BME280;41875;55.806;38.082;2023-03-19T08:08:49;100456.81;;;3.31;38.16
55990;BME280;41875;55.806;38.082;2023-03-19T08:11:17;100463.31;;;3.40;38.46
55990;BME280;41875;55.806;38.082;2023-03-19T08:13:46;100458.03;;;3.26;38.81
55990;BME280;41875;55.806;38.082;2023-03-19T08:16:14;100443.03;;;3.58;38.80
55990;BME280;41875;55.806;38.082;2023-03-19T08:18:42;100440.59;;;4.84;36.28
55990;BME280;41875;55.806;38.082;2023-03-19T08:21:12;100446.53;;;4.17;36.47
55990;BME280;41875;55.806;38.082;2023-03-19T08:23:42;100444.19;;;4.41;35.91
55990;BME280;41875;55.806;38.082;2023-03-19T08:26:10;100438.59;;;4.60;36.09
55990;BME280;41875;55.806;38.082;2023-03-19T08:28:38;100431.63;;;2.98;38.41
55990;BME280;41875;55.806;38.082;2023-03-19T08:31:07;100435.63;;;3.05;38.81
55990;BME280;41875;55.806;38.082;2023-03-19T08:33:36;100431.59;;;4.61;36.52
55990;BME280;41875;55.806;38.082;2023-03-19T08:36:05;100425.44;;;3.60;38.23
55990;BME280;41875;55.806;38.082;2023-03-19T08:38:34;100424.44;;;4.90;36.26
55990;BME280;41875;55.806;38.082;2023-03-19T08:41:04;100423.00;;;5.91;34.17
55990;BME280;41875;55.806;38.082;2023-03-19T08:43:33;100414.06;;;5.42;34.62
55990;BME280;41875;55.806;38.082;2023-03-19T08:46:02;100415.00;;;4.87;35.41
55990;BME280;41875;55.806;38.082;2023-03-19T08:48:31;100409.19;;;4.55;36.46
55990;BME280;41875;55.806;38.082;2023-03-19T08:51:00;100405.53;;;5.38;35.06
55990;BME280;41875;55.806;38.082;2023-03-19T08:53:29;100400.50;;;5.87;33.98
55990;BME280;41875;55.806;38.082;2023-03-19T08:55:59;100401.75;;;5.81;34.21
55990;BME280;41875;55.806;38.082;2023-03-19T08:58:29;100405.13;;;4.91;35.48
55990;BME280;41875;55.806;38.082;2023-03-19T09:01:00;100401.44;;;5.60;34.60
55990;BME280;41875;55.806;38.082;2023-03-19T09:03:29;100394.53;;;5.72;34.60
55990;BME280;41875;55.806;38.082;2023-03-19T09:05:58;100386.59;;;5.85;34.38
55990;BME280;41875;55.806;38.082;2023-03-19T09:08:27;100382.44;;;4.63;36.42
55990;BME280;41875;55.806;38.082;2023-03-19T09:10:57;100373.75;;;4.62;36.78
55990;BME280;41875;55.806;38.082;2023-03-19T09:13:25;100369.81;;;5.48;35.21
55990;BME280;41875;55.806;38.082;2023-03-19T09:15:55;100370.13;;;4.78;36.50
55990;BME280;41875;55.806;38.082;2023-03-19T09:18:23;100357.75;;;4.93;36.34
55990;BME280;41875;55.806;38.082;2023-03-19T09:20:51;100365.91;;;5.28;35.54
55990;BME280;41875;55.806;38.082;2023-03-19T09:23:20;100360.22;;;4.68;36.54
55990;BME280;41875;55.806;38.082;2023-03-19T09:25:49;100354.34;;;5.05;35.81
55990;BME280;41875;55.806;38.082;2023-03-19T09:28:18;100352.09;;;4.99;36.02
55990;BME280;41875;55.806;38.082;2023-03-19T09:30:46;100346.81;;;6.15;34.21
55990;BME280;41875;55.806;38.082;2023-03-19T09:33:16;100344.78;;;5.17;35.78
55990;BME280;41875;55.806;38.082;2023-03-19T09:35:48;100334.25;;;5.56;35.38
55990;BME280;41875;55.806;38.082;2023-03-19T09:38:17;100329.00;;;5.69;35.52
55990;BME280;41875;55.806;38.082;2023-03-19T09:40:46;100328.78;;;6.35;34.26
55990;BME280;41875;55.806;38.082;2023-03-19T09:43:19;100333.41;;;6.55;33.83
55990;BME280;41875;55.806;38.082;2023-03-19T09:45:51;100330.84;;;5.92;33.69
55990;BME280;41875;55.806;38.082;2023-03-19T09:48:25;100332.16;;;6.73;33.75
55990;BME280;41875;55.806;38.082;2023-03-19T09:50:58;100320.81;;;7.42;32.69
55990;BME280;41875;55.806;38.082;2023-03-19T09:53:29;100321.00;;;6.69;33.42
55990;BME280;41875;55.806;38.082;2023-03-19T09:56:06;100322.34;;;5.76;34.59
55990;BME280;41875;55.806;38.082;2023-03-19T09:58:47;100311.88;;;5.37;35.37
55990;BME280;41875;55.806;38.082;2023-03-19T10:01:25;100316.88;;;5.79;35.40
55990;BME280;41875;55.806;38.082;2023-03-19T10:04:12;100313.56;;;6.14;34.25
55990;BME280;41875;55.806;38.082;2023-03-19T10:06:46;100303.38;;;6.58;34.14
55990;BME280;41875;55.806;38.082;2023-03-19T10:09:20;100310.13;;;5.88;34.67
55990;BME280;41875;55.806;38.082;2023-03-19T10:11:57;100293.13;;;6.18;34.05
55990;BME280;41875;55.806;38.082;2023-03-19T10:17:17;100302.00;;;6.41;34.34
55990;BME280;41875;55.806;38.082;2023-03-19T10:19:49;100295.50;;;7.05;33.35
55990;BME280;41875;55.806;38.082;2023-03-19T10:22:20;100290.06;;;6.48;34.24
55990;BME280;41875;55.806;38.082;2023-03-19T10:24:51;100292.88;;;7.16;32.85
55990;BME280;41875;55.806;38.082;2023-03-19T10:27:21;100283.63;;;6.88;33.13
55990;BME280;41875;55.806;38.082;2023-03-19T10:29:50;100292.91;;;7.51;32.26
55990;BME280;41875;55.806;38.082;2023-03-19T10:32:19;100287.09;;;5.91;34.56
55990;BME280;41875;55.806;38.082;2023-03-19T10:34:49;100280.50;;;6.83;33.27
55990;BME280;41875;55.806;38.082;2023-03-19T10:37:20;100274.44;;;7.51;32.40
55990;BME280;41875;55.806;38.082;2023-03-19T10:39:49;100283.78;;;7.66;31.78
55990;BME280;41875;55.806;38.082;2023-03-19T10:42:20;100273.84;;;7.24;32.24
55990;BME280;41875;55.806;38.082;2023-03-19T10:44:55;100273.53;;;6.46;33.22
55990;BME280;41875;55.806;38.082;2023-03-19T10:47:26;100279.31;;;6.03;34.40
55990;BME280;41875;55.806;38.082;2023-03-19T10:49:58;100273.72;;;6.32;34.01
55990;BME280;41875;55.806;38.082;2023-03-19T10:52:28;100272.78;;;6.08;35.31
55990;BME280;41875;55.806;38.082;2023-03-19T10:55:00;100267.88;;;6.64;33.94
55990;BME280;41875;55.806;38.082;2023-03-19T10:57:29;100261.25;;;7.05;33.49
55990;BME280;41875;55.806;38.082;2023-03-19T11:00:01;100245.81;;;7.00;34.27
55990;BME280;41875;55.806;38.082;2023-03-19T11:02:29;100260.44;;;6.33;35.04
55990;BME280;41875;55.806;38.082;2023-03-19T11:05:07;100256.50;;;6.39;35.19
55990;BME280;41875;55.806;38.082;2023-03-19T11:07:49;100257.88;;;7.03;34.59
55990;BME280;41875;55.806;38.082;2023-03-19T11:10:17;100257.19;;;7.46;34.29
55990;BME280;41875;55.806;38.082;2023-03-19T11:12:46;100256.69;;;7.75;33.61
55990;BME280;41875;55.806;38.082;2023-03-19T11:15:17;100252.81;;;5.93;37.06
55990;BME280;41875;55.806;38.082;2023-03-19T11:17:47;100255.34;;;6.43;36.73
55990;BME280;41875;55.806;38.082;2023-03-19T11:20:19;100253.44;;;6.45;37.03
55990;BME280;41875;55.806;38.082;2023-03-19T11:22:49;100239.81;;;6.87;36.24
55990;BME280;41875;55.806;38.082;2023-03-19T11:25:22;100243.94;;;7.92;34.29
55990;BME280;41875;55.806;38.082;2023-03-19T11:27:59;100237.09;;;8.01;34.18
55990;BME280;41875;55.806;38.082;2023-03-19T11:30:32;100243.16;;;7.35;35.37
55990;BME280;41875;55.806;38.082;2023-03-19T11:33:08;100234.81;;;7.18;35.93
55990;BME280;41875;55.806;38.082;2023-03-19T11:35:43;100231.53;;;6.80;37.15
55990;BME280;41875;55.806;38.082;2023-03-19T11:38:13;100222.81;;;7.14;36.16
55990;BME280;41875;55.806;38.082;2023-03-19T11:40:43;100220.03;;;7.27;36.12
55990;BME280;41875;55.806;38.082;2023-03-19T11:46:00;100213.56;;;7.42;36.16
55990;BME280;41875;55.806;38.082;2023-03-19T11:54:46;100210.34;;;7.39;36.46
55990;BME280;41875;55.806;38.082;2023-03-19T11:57:17;100203.41;;;7.04;37.10
55990;BME280;41875;55.806;38.082;2023-03-19T11:59:59;100204.00;;;7.30;36.52
55990;BME280;41875;55.806;38.082;2023-03-19T12:02:44;100197.31;;;6.92;37.26
55990;BME280;41875;55.806;38.082;2023-03-19T12:05:18;100197.28;;;6.80;37.09
55990;BME280;41875;55.806;38.082;2023-03-19T12:07:51;100199.44;;;6.98;37.36
55990;BME280;41875;55.806;38.082;2023-03-19T12:10:32;100189.84;;;7.54;35.64
55990;BME280;41875;55.806;38.082;2023-03-19T12:13:06;100189.25;;;6.70;36.95
55990;BME280;41875;55.806;38.082;2023-03-19T12:15:38;100193.59;;;6.36;37.42
55990;BME280;41875;55.806;38.082;2023-03-19T12:18:10;100189.72;;;6.17;38.37
55990;BME280;41875;55.806;38.082;2023-03-19T12:20:49;100179.91;;;6.19;37.86
55990;BME280;41875;55.806;38.082;2023-03-19T12:23:25;100172.47;;;7.40;36.48
55990;BME280;41875;55.806;38.082;2023-03-19T12:26:01;100172.41;;;7.07;36.76
55990;BME280;41875;55.806;38.082;2023-03-19T12:28:32;100167.72;;;6.99;36.66
55990;BME280;41875;55.806;38.082;2023-03-19T12:33:48;100150.50;;;7.18;36.47
55990;BME280;41875;55.806;38.082;2023-03-19T12:36:19;100158.63;;;6.81;36.65
55990;BME280;41875;55.806;38.082;2023-03-19T12:38:50;100154.03;;;6.49;37.93
55990;BME280;41875;55.806;38.082;2023-03-19T12:41:22;100147.84;;;6.95;36.72
55990;BME280;41875;55.806;38.082;2023-03-19T12:43:56;100147.78;;;7.63;35.78
55990;BME280;41875;55.806;38.082;2023-03-19T12:46:27;100133.25;;;7.14;36.67
55990;BME280;41875;55.806;38.082;2023-03-19T12:48:59;100145.31;;;6.48;37.87
55990;BME280;41875;55.806;38.082;2023-03-19T12:51:31;100139.53;;;6.32;37.96
55990;BME280;41875;55.806;38.082;2023-03-19T12:54:02;100137.66;;;6.68;37.84
55990;BME280;41875;55.806;38.082;2023-03-19T12:56:36;100132.25;;;7.26;36.72
55990;BME280;41875;55.806;38.082;2023-03-19T12:59:08;100131.56;;;6.67;37.47
55990;BME280;41875;55.806;38.082;2023-03-19T13:01:38;100127.88;;;6.93;37.09
55990;BME280;41875;55.806;38.082;2023-03-19T13:04:10;100118.41;;;6.79;37.53
55990;BME280;41875;55.806;38.082;2023-03-19T13:06:40;100115.53;;;6.93;37.26
55990;BME280;41875;55.806;38.082;2023-03-19T13:09:12;100110.91;;;7.41;36.30
55990;BME280;41875;55.806;38.082;2023-03-19T13:11:45;100104.84;;;7.61;36.01
55990;BME280;41875;55.806;38.082;2023-03-19T13:14:16;100119.09;;;6.47;37.90
55990;BME280;41875;55.806;38.082;2023-03-19T13:16:48;100107.44;;;5.91;39.15
55990;BME280;41875;55.806;38.082;2023-03-19T13:19:20;100101.25;;;6.39;38.41
55990;BME280;41875;55.806;38.082;2023-03-19T13:21:54;100103.78;;;6.97;37.46
55990;BME280;41875;55.806;38.082;2023-03-19T13:24:23;100102.47;;;6.58;37.49